createdAt,value
2019-05-16T00:03:14.313Z,4.10
2019-05-16T00:08:19.548Z,4.83
2019-05-16T00:13:24.790Z,1.92
2019-05-16T00:18:30.380Z,3.00
2019-05-16T00:23:37.717Z,2.33
2019-05-16T00:28:42.917Z,2.80
2019-05-16T00:33:49.098Z,3.42
2019-05-16T00:38:54.309Z,4.03
2019-05-16T00:44:00.568Z,2.65
2019-05-16T00:49:08.125Z,2.93
2019-05-16T00:54:13.616Z,2.00
2019-05-16T00:59:19.851Z,2.25
2019-05-16T01:04:25.429Z,2.58
2019-05-16T01:09:30.676Z,2.35
2019-05-16T01:14:38.311Z,4.17
2019-05-16T01:19:43.017Z,2.30
2019-05-16T01:24:49.287Z,3.62
2019-05-16T01:29:55.658Z,3.50
2019-05-16T01:35:00.810Z,2.93
2019-05-16T01:40:08.187Z,2.93
2019-05-16T01:45:14.471Z,3.23
2019-05-16T01:50:19.638Z,2.80
2019-05-16T01:55:24.817Z,3.90
2019-05-16T02:00:36.271Z,4.80
2019-05-16T02:05:38.771Z,6.42
2019-05-16T02:10:44.152Z,4.30
2019-05-16T02:15:49.341Z,3.50
2019-05-16T02:20:54.536Z,2.40
2019-05-16T02:25:59.794Z,3.40
2019-05-16T02:31:05.476Z,3.13
2019-05-16T02:36:11.192Z,3.07
2019-05-16T02:41:16.474Z,4.83
2019-05-16T02:46:22.069Z,2.47
2019-05-16T02:51:31.541Z,3.17
2019-05-16T02:56:35.673Z,3.47
2019-05-16T03:01:41.133Z,2.60
2019-05-16T03:06:51.117Z,4.35
2019-05-16T03:11:55.712Z,3.87
2019-05-16T03:17:03.868Z,5.80
2019-05-16T03:22:11.676Z,3.50
2019-05-16T03:27:16.163Z,4.27
2019-05-16T03:32:24.195Z,3.20
2019-05-16T03:37:30.768Z,3.97
2019-05-16T03:42:35.634Z,3.73
2019-05-16T03:47:42.717Z,3.70
2019-05-16T03:52:50.869Z,2.97
2019-05-16T03:57:56.025Z,4.63
2019-05-16T04:03:01.455Z,5.33
2019-05-16T04:08:17.926Z,5.47
2019-05-16T04:13:15.523Z,3.70
2019-05-16T04:18:21.989Z,2.75
2019-05-16T04:23:30.982Z,3.93
2019-05-16T04:28:34.468Z,2.63
2019-05-16T04:33:41.658Z,4.17
2019-05-16T04:38:47.125Z,3.67
2019-05-16T04:43:52.389Z,4.47
2019-05-16T04:49:01.472Z,3.53
2019-05-16T04:54:07.153Z,4.10
2019-05-16T04:59:16.554Z,4.73
2019-05-16T05:04:21.111Z,4.53
2019-05-16T05:09:26.606Z,3.90
2019-05-16T05:14:32.449Z,3.73
2019-05-16T05:19:41.185Z,4.03
2019-05-16T05:24:45.485Z,4.85
2019-05-16T05:29:50.644Z,3.50
2019-05-16T05:34:56.375Z,6.27
2019-05-16T05:40:01.640Z,4.95
2019-05-16T05:45:07.548Z,5.70
2019-05-16T05:50:13.716Z,4.30
2019-05-16T05:55:20.037Z,5.35
2019-05-16T06:00:27.063Z,3.70
2019-05-16T06:05:32.212Z,5.90
2019-05-16T06:10:37.380Z,4.57
2019-05-16T06:15:42.818Z,5.63
2019-05-16T06:20:47.991Z,5.33
2019-05-16T06:25:53.144Z,5.27
2019-05-16T06:31:01.409Z,5.67
2019-05-16T06:36:05.229Z,4.30
2019-05-16T06:41:10.796Z,4.13
2019-05-16T06:46:16.971Z,6.50
2019-05-16T06:51:22.120Z,6.13
2019-05-16T06:56:30.545Z,6.60
2019-05-16T07:01:34.764Z,6.20
2019-05-16T07:06:54.808Z,4.97
2019-05-16T07:11:47.154Z,6.03
2019-05-16T07:16:52.341Z,6.37
2019-05-16T07:21:59.828Z,5.53
2019-05-16T07:27:05.179Z,7.97
2019-05-16T07:32:12.499Z,5.08
2019-05-16T07:37:19.879Z,8.53
2019-05-16T07:42:24.185Z,6.50
2019-05-16T07:47:30.992Z,4.80
2019-05-16T07:52:36.834Z,4.67
2019-05-16T07:57:43.313Z,5.90
2019-05-16T08:02:50.584Z,5.30
2019-05-16T08:07:55.950Z,5.37
2019-05-16T08:18:10.903Z,7.83
2019-05-16T08:23:14.911Z,5.23
2019-05-16T08:33:31.945Z,5.40
2019-05-16T08:38:36.275Z,5.77
2019-05-16T08:43:41.795Z,6.80
2019-05-16T08:48:47.241Z,5.37
2019-05-16T08:50:11.134Z,5.70
2019-05-16T08:53:52.401Z,7.87
2019-05-16T08:58:57.576Z,6.07
2019-05-16T09:04:03.048Z,5.53
2019-05-16T09:10:14.341Z,4.70
2019-05-16T09:10:41.206Z,5.50
2019-05-16T09:14:17.160Z,5.57
2019-05-16T09:19:22.193Z,3.62
2019-05-16T09:24:27.432Z,5.60
2019-05-16T09:29:32.615Z,5.23
2019-05-16T09:34:38.148Z,5.27
2019-05-16T09:39:44.404Z,5.20
2019-05-16T09:44:50.182Z,6.80
2019-05-16T09:49:57.950Z,5.50
2019-05-16T09:55:03.381Z,5.57
2019-05-16T10:00:13.239Z,5.50
2019-05-16T10:05:20.547Z,5.60
2019-05-16T10:10:26.263Z,5.10
2019-05-16T10:15:31.644Z,5.30
2019-05-16T10:20:37.237Z,3.95
2019-05-16T10:25:42.678Z,4.30
2019-05-16T10:30:50.129Z,4.17
2019-05-16T10:35:57.908Z,5.00
2019-05-16T10:41:02.578Z,4.23
2019-05-16T10:46:07.742Z,5.00
2019-05-16T10:51:13.360Z,5.63
2019-05-16T10:56:18.539Z,7.07
2019-05-16T11:01:27.722Z,6.23
2019-05-16T11:06:30.919Z,5.50
2019-05-16T11:11:36.871Z,4.47
2019-05-16T11:16:42.237Z,5.87
2019-05-16T11:21:48.618Z,4.37
2019-05-16T11:26:53.857Z,4.85
2019-05-16T11:31:59.028Z,5.63
2019-05-16T11:37:06.850Z,4.22
2019-05-16T11:42:11.594Z,5.30
2019-05-16T11:47:16.912Z,5.12
2019-05-16T11:52:22.097Z,5.73
2019-05-16T11:57:27.332Z,4.90
2019-05-16T12:02:32.593Z,5.85
2019-05-16T12:07:44.419Z,6.03
2019-05-16T12:12:44.836Z,7.70
2019-05-16T12:18:00.897Z,7.10
2019-05-16T12:22:57.076Z,6.12
2019-05-16T12:28:03.053Z,6.10
2019-05-16T12:33:08.645Z,9.53
2019-05-16T12:38:16.749Z,6.97
2019-05-16T12:43:21.181Z,7.62
2019-05-16T12:48:27.072Z,9.35
2019-05-16T12:53:32.639Z,8.95
2019-05-16T12:58:42.039Z,7.23
2019-05-16T13:03:47.859Z,7.87
2019-05-16T13:08:53.587Z,6.33
2019-05-16T13:14:06.327Z,7.30
2019-05-16T13:19:06.977Z,7.25
2019-05-16T13:24:12.930Z,8.37
2019-05-16T13:29:18.337Z,7.27
2019-05-16T13:34:28.108Z,7.40
2019-05-16T13:39:32.553Z,6.72
2019-05-16T13:44:38.640Z,7.62
2019-05-16T13:49:44.112Z,4.77
2019-05-16T13:54:49.281Z,4.93
2019-05-16T13:59:56.759Z,5.22
2019-05-16T14:05:01.537Z,5.20
2019-05-16T14:10:08.845Z,4.78
2019-05-16T14:15:18.127Z,5.00
2019-05-16T14:20:23.586Z,5.20
2019-05-16T14:25:29.560Z,6.90
2019-05-16T14:30:37.236Z,7.97
2019-05-16T14:35:42.828Z,6.12
2019-05-16T14:40:50.325Z,10.98
2019-05-16T14:45:57.078Z,6.90
2019-05-16T14:51:02.340Z,7.33
2019-05-16T14:56:08.266Z,6.45
2019-05-16T15:01:13.777Z,3.80
2019-05-16T15:06:19.156Z,3.67
2019-05-16T15:11:24.689Z,3.42
2019-05-16T15:16:30.261Z,3.08
2019-05-16T15:21:35.490Z,3.55
2019-05-16T15:26:41.584Z,4.60
2019-05-16T15:31:46.970Z,4.30
2019-05-16T15:36:52.153Z,5.70
2019-05-16T15:41:57.776Z,4.30
2019-05-16T15:47:03.442Z,4.60
2019-05-16T15:52:08.796Z,4.22
2019-05-16T15:57:17.459Z,4.08
2019-05-16T16:02:22.342Z,5.08
2019-05-16T16:07:27.584Z,4.28
2019-05-16T16:12:33.169Z,4.42
2019-05-16T16:17:38.756Z,4.65
2019-05-16T16:22:46.986Z,4.95
2019-05-16T16:27:51.407Z,5.83
2019-05-16T16:32:56.702Z,5.97
2019-05-16T16:38:02.013Z,5.20
2019-05-16T16:43:08.116Z,4.80
2019-05-16T16:48:13.412Z,4.90
2019-05-16T16:53:18.645Z,4.92
2019-05-16T16:58:26.597Z,5.90
2019-05-16T17:03:33.610Z,5.28
2019-05-16T17:08:38.766Z,5.87
2019-05-16T17:13:47.071Z,5.67
2019-05-16T17:18:52.008Z,7.17
2019-05-16T17:23:57.248Z,6.75
2019-05-16T17:29:02.874Z,6.33
2019-05-16T17:34:08.539Z,7.03
2019-05-16T17:39:15.028Z,7.70
2019-05-16T17:44:20.599Z,8.60
2019-05-16T17:49:26.670Z,8.65
2019-05-16T17:54:32.347Z,8.88
2019-05-16T17:59:38.085Z,10.10
2019-05-16T18:04:43.607Z,9.33
2019-05-16T18:09:49.919Z,10.60
2019-05-16T18:14:57.146Z,10.00
2019-05-16T18:20:02.282Z,11.40
2019-05-16T18:25:07.940Z,12.05
2019-05-16T18:30:13.586Z,10.58
2019-05-16T18:35:18.929Z,13.32
2019-05-16T18:40:27.001Z,11.83
2019-05-16T18:45:31.477Z,14.25
2019-05-16T18:50:38.245Z,16.12
2019-05-16T18:55:46.146Z,14.90
2019-05-16T19:00:51.393Z,14.40
2019-05-16T19:05:57.349Z,14.90
2019-05-16T19:11:03.046Z,15.13
2019-05-16T19:16:08.210Z,14.93
2019-05-16T19:21:13.476Z,16.93
2019-05-16T19:26:19.610Z,14.17
2019-05-16T19:31:26.427Z,18.45
2019-05-16T19:36:32.543Z,15.28
2019-05-16T19:41:38.878Z,15.95
2019-05-16T19:46:46.699Z,13.90
2019-05-16T19:51:51.587Z,21.48
2019-05-16T19:56:56.858Z,19.85
2019-05-16T20:02:02.044Z,21.90
2019-05-16T20:07:07.728Z,18.48
2019-05-16T20:12:13.017Z,22.77
2019-05-16T20:17:19.161Z,23.57
2019-05-16T20:22:26.126Z,21.77
2019-05-16T20:27:32.173Z,23.40
2019-05-16T20:32:37.437Z,25.55
2019-05-16T20:37:43.128Z,24.33
2019-05-16T20:42:48.305Z,22.07
2019-05-16T20:48:07.335Z,23.90
2019-05-16T20:53:00.414Z,21.50
2019-05-16T20:58:07.622Z,24.02
2019-05-16T21:03:13.641Z,24.17
2019-05-16T21:08:18.886Z,24.95
2019-05-16T21:13:24.359Z,24.87
2019-05-16T21:18:29.962Z,26.23
2019-05-16T21:23:36.576Z,24.40
2019-05-16T21:28:41.769Z,22.03
2019-05-16T21:33:48.010Z,25.57
2019-05-16T21:38:53.407Z,23.93
2019-05-16T21:43:58.627Z,21.87
2019-05-16T21:49:03.894Z,23.32
2019-05-16T21:54:09.001Z,27.37
2019-05-16T21:59:14.614Z,23.95
2019-05-16T22:04:20.174Z,27.70
2019-05-16T22:09:26.617Z,28.77
2019-05-16T22:14:36.966Z,31.53
2019-05-16T22:19:42.135Z,32.20
2019-05-16T22:24:49.315Z,33.97
2019-05-16T22:29:56.612Z,30.25
2019-05-16T22:35:01.210Z,30.50
2019-05-16T22:40:09.814Z,30.20
2019-05-16T22:45:18.382Z,34.83
2019-05-16T22:50:23.574Z,33.77
2019-05-16T22:55:28.840Z,36.55
2019-05-16T23:00:37.358Z,34.03
2019-05-16T23:05:41.875Z,34.20
2019-05-16T23:10:47.121Z,38.13
2019-05-16T23:15:52.607Z,39.63
2019-05-16T23:20:58.137Z,39.25
2019-05-16T23:26:06.193Z,36.90
2019-05-16T23:31:10.668Z,43.17
2019-05-16T23:36:17.456Z,38.63
2019-05-16T23:41:22.839Z,39.13
2019-05-16T23:46:28.655Z,44.00
2019-05-16T23:51:33.820Z,42.90
2019-05-16T23:56:39.408Z,40.05
